MSC Jordan — HPMK — position and weather

sailwx.info

Track history (hours):
 
Tides and Currents Weather Stations Pressure Air Temp Water Temp Dewpoint Dewpoint Depression Visibility Wind Speed Wind Dir Waves Ship Positions

MSC Jordan

Last reported at 2016-Sep-25 04:10 UTC. Time now 2016-Sep-27 18:59 UTC.
Position N 14°31' W 017°24'.

Length 237 m; draft 9.6 m.

Type: Ship. MMSI: 355194000.

Date/timePositionNaut miles runAvg speedWind from/ knotsBaromVisibWave heightAir tempDewpointWater temp
2016-Sep-25 04:10N 14°31' W 017°24'10 2.8
2016-Sep-25 00:33N 14°41' W 017°26'0 0.0
2016-Sep-24 22:33N 14°41' W 017°26'0 0.0
2016-Sep-24 21:33N 14°41' W 017°26'1 0.6
2016-Sep-24 19:33N 14°41' W 017°25'3 3.4
2016-Sep-24 18:33N 14°40' W 017°21'5 4.5
2016-Sep-24 17:33N 14°36' W 017°19'1010.0
2016-Sep-24 16:33N 14°32' W 017°28'5 2.1
2016-Sep-24 14:13N 14°32' W 017°33'2 0.9
2016-Sep-24 12:30N 14°33' W 017°34'  
2016-Sep-22 04:34N 28°08' W 015°25'0 0.0
2016-Sep-22 03:34N 28°08' W 015°25'0 0.0
2016-Sep-22 00:33N 28°08' W 015°25'0 0.0
2016-Sep-21 23:33N 28°08' W 015°25'2 1.8
2016-Sep-21 22:33N 28°07' W 015°23'3411.4
2016-Sep-21 19:33N 28°39' W 015°10'  
2016-Sep-18 02:33N 50°01' W 002°35'7318.2
2016-Sep-17 22:34N 49°41' W 000°47'1514.8
2016-Sep-17 21:34N 49°36' W 000°25'1414.2
2016-Sep-17 20:34N 49°31' W 000°05'9 7.0
2016-Sep-17 19:16N 49°28' E 000°08'0 0.0
2016-Sep-17 13:33N 49°28' E 000°08'0 0.0
2016-Sep-17 12:33N 49°28' E 000°08'0 0.1
2016-Sep-17 10:33N 49°28' E 000°08'8 7.9
2016-Sep-17 09:33N 49°31' W 000°03'9 8.8
2016-Sep-17 08:33N 49°38' W 000°10'9 8.8
2016-Sep-17 07:34N 49°47' W 000°10'3417.0
2016-Sep-17 05:33N 50°21' W 000°11'1716.8
2016-Sep-17 04:33N 50°30' E 000°11'6416.0
2016-Sep-17 00:34N 51°06' E 001°35'53 7.5
2016-Sep-16 17:31N 51°57' E 001°18'0 0.0
2016-Sep-16 15:31N 51°57' E 001°18'0 0.0
2016-Sep-16 12:31N 51°57' E 001°18'0 0.0
2016-Sep-16 09:32N 51°57' E 001°18'0 0.0
2016-Sep-16 07:32N 51°57' E 001°18'0 0.0
2016-Sep-16 03:31N 51°57' E 001°18'0 0.0
2016-Sep-16 02:31N 51°57' E 001°18'0 0.0
2016-Sep-16 00:33N 51°57' E 001°18'0 0.0
2016-Sep-15 22:33N 51°57' E 001°18'0 0.0
2016-Sep-15 21:33N 51°57' E 001°18'0 0.0
2016-Sep-15 20:33N 51°57' E 001°18'14 7.0
2016-Sep-15 18:34N 51°53' E 001°40'0 0.1
2016-Sep-15 12:33N 51°54' E 001°40'0 0.0
2016-Sep-15 11:34N 51°54' E 001°40'7610.9
2016-Sep-15 04:34N 51°26' E 003°35'  
Track history (hours):
 
Tides and Currents Weather Stations Pressure Air Temp Water Temp Dewpoint Dewpoint Depression Visibility Wind Speed Wind Dir Waves Ship Positions

MSC Jordan

Last reported at 2016-Sep-25 04:10 UTC. Time now 2016-Sep-27 18:59 UTC.
Position N 14°31' W 017°24'.

Length 237 m; draft 9.6 m.

Type: Ship. MMSI: 355194000.

Date/timePositionNaut miles runAvg speedWind from/ knotsBaromVisibWave heightAir tempDewpointWater temp
2016-Sep-25 04:10N 14°31' W 017°24'10 2.8
2016-Sep-25 00:33N 14°41' W 017°26'0 0.0
2016-Sep-24 22:33N 14°41' W 017°26'0 0.0
2016-Sep-24 21:33N 14°41' W 017°26'1 0.6
2016-Sep-24 19:33N 14°41' W 017°25'3 3.4
2016-Sep-24 18:33N 14°40' W 017°21'5 4.5
2016-Sep-24 17:33N 14°36' W 017°19'1010.0
2016-Sep-24 16:33N 14°32' W 017°28'5 2.1
2016-Sep-24 14:13N 14°32' W 017°33'2 0.9
2016-Sep-24 12:30N 14°33' W 017°34'  
2016-Sep-22 04:34N 28°08' W 015°25'0 0.0
2016-Sep-22 03:34N 28°08' W 015°25'0 0.0
2016-Sep-22 00:33N 28°08' W 015°25'0 0.0
2016-Sep-21 23:33N 28°08' W 015°25'2 1.8
2016-Sep-21 22:33N 28°07' W 015°23'3411.4
2016-Sep-21 19:33N 28°39' W 015°10'  
2016-Sep-18 02:33N 50°01' W 002°35'7318.2
2016-Sep-17 22:34N 49°41' W 000°47'1514.8
2016-Sep-17 21:34N 49°36' W 000°25'1414.2
2016-Sep-17 20:34N 49°31' W 000°05'9 7.0
2016-Sep-17 19:16N 49°28' E 000°08'0 0.0
2016-Sep-17 13:33N 49°28' E 000°08'0 0.0
2016-Sep-17 12:33N 49°28' E 000°08'0 0.1
2016-Sep-17 10:33N 49°28' E 000°08'8 7.9
2016-Sep-17 09:33N 49°31' W 000°03'9 8.8
2016-Sep-17 08:33N 49°38' W 000°10'9 8.8
2016-Sep-17 07:34N 49°47' W 000°10'3417.0
2016-Sep-17 05:33N 50°21' W 000°11'1716.8
2016-Sep-17 04:33N 50°30' E 000°11'6416.0
2016-Sep-17 00:34N 51°06' E 001°35'53 7.5
2016-Sep-16 17:31N 51°57' E 001°18'0 0.0
2016-Sep-16 15:31N 51°57' E 001°18'0 0.0
2016-Sep-16 12:31N 51°57' E 001°18'0 0.0
2016-Sep-16 09:32N 51°57' E 001°18'0 0.0
2016-Sep-16 07:32N 51°57' E 001°18'0 0.0
2016-Sep-16 03:31N 51°57' E 001°18'0 0.0
2016-Sep-16 02:31N 51°57' E 001°18'0 0.0
2016-Sep-16 00:33N 51°57' E 001°18'0 0.0
2016-Sep-15 22:33N 51°57' E 001°18'0 0.0
2016-Sep-15 21:33N 51°57' E 001°18'0 0.0
2016-Sep-15 20:33N 51°57' E 001°18'14 7.0
2016-Sep-15 18:34N 51°53' E 001°40'0 0.1
2016-Sep-15 12:33N 51°54' E 001°40'0 0.0
2016-Sep-15 11:34N 51°54' E 001°40'7610.9
2016-Sep-15 04:34N 51°26' E 003°35'  

Dump ship's entire track history